Afton, CA

1:34 AM PDT on August 27, 2016 (GMT -0700)
Grey Lodge | | Change Station

Elev 75 ft 39.29 °N, 121.79 °W | Updated 8 minutes ago

Clear
Clear
63.0 °F
Feels Like 63.0 °F
N
4.2
Wind Variable Wind from SE

Today
High -- | Low -- °F
--% Chance of Precip.
Yesterday
High -- | Low -- °F
Precip. -- in
Pressure 29.91 in
Visibility 10.0 miles
Clouds Clear
Dew Point 55 °F
Humidity 76%
Rainfall 0.00 in
Snow Depth Not available.
6:32 AM 7:45 PM
Waning Crescent, 26% visible
METAR KOVE 270753Z AUTO 15008KT 10SM CLR 18/13 A2991 RMK AO2 SLP128 T01830133 403280139 $
Pressure 29.91 in
Visibility 10.0 miles
Clouds Clear
Dew Point 55 °F
Humidity 76%
Rainfall 0.00 in
Snow Depth Not available.
6:32 AM 7:45 PM
Waning Crescent, 26% visible
METAR KOVE 270753Z AUTO 15008KT 10SM CLR 18/13 A2991 RMK AO2 SLP128 T01830133 403280139 $

10-Day Weather Forecast

Almanac

Astronomy

Aug. 27, 2016 Rise Set
Actual Time
Civil Twilight
Nautical Twilight
Astronomical Twilight
Moon
Length of Visible Light
Length of Day
Tomorrow will be .
, % of the Moon is Illuminated

Today's Extremes

State Highs State Lows

Community

WunderPhotos

Upload Photos

1,935,303 photos uploaded!

WunderBlog® & News

Nearby

Air Quality

  Air Quality AQ Index Pollutant
Not available.

Snow Depth

Station Depth Elevation

Earthquake Activity

City Distance Mag. Time & Date
Minimum magnitude displayed is 2.5.

Coastal Water Temperatures

Place Temperature

Stations

Nearby Weather Stations

Station Location Temp. Windchill Dew Point Humidity Wind Precip. Elev Updated Type
                   

Watches & Warnings

There are currently no watches in effect.